createdAt,value
2017-08-24T00:01:08.985Z,16.20
2017-08-24T00:03:38.829Z,16.30
2017-08-24T00:06:07.624Z,16.30
2017-08-24T00:08:35.649Z,16.30
2017-08-24T00:11:04.664Z,16.30
2017-08-24T00:13:32.688Z,16.30
2017-08-24T00:16:02.605Z,16.30
2017-08-24T00:18:30.645Z,16.30
2017-08-24T00:20:58.676Z,16.30
2017-08-24T00:23:26.705Z,16.30
2017-08-24T00:25:54.729Z,16.30
2017-08-24T00:28:23.513Z,16.20
2017-08-24T00:30:51.537Z,16.20
2017-08-24T00:33:19.581Z,16.20
2017-08-24T00:35:47.596Z,16.20
2017-08-24T00:38:15.624Z,16.10
2017-08-24T00:40:43.660Z,16.10
2017-08-24T00:43:15.808Z,16.00
2017-08-24T00:45:44.888Z,15.90
2017-08-24T00:48:12.912Z,15.80
2017-08-24T00:50:42.692Z,15.60
2017-08-24T00:53:10.732Z,15.60
2017-08-24T00:55:38.752Z,15.60
2017-08-24T00:58:10.508Z,15.70
2017-08-24T01:00:41.232Z,15.70
2017-08-24T01:03:09.264Z,15.80
2017-08-24T01:05:38.293Z,15.80
2017-08-24T01:08:06.340Z,15.80
2017-08-24T01:10:34.356Z,15.80
2017-08-24T01:13:02.391Z,15.80
2017-08-24T01:15:31.388Z,15.80
2017-08-24T01:18:01.436Z,15.90
2017-08-24T01:20:36.132Z,15.90
2017-08-24T01:23:04.168Z,15.90
2017-08-24T01:25:32.196Z,15.80
2017-08-24T01:28:01.992Z,15.80
2017-08-24T01:30:30.038Z,15.80
2017-08-24T01:32:58.052Z,15.80
2017-08-24T01:35:26.843Z,15.80
2017-08-24T01:37:55.648Z,15.80
2017-08-24T01:40:23.672Z,15.80
2017-08-24T01:42:52.676Z,15.80
2017-08-24T01:45:20.700Z,15.90
2017-08-24T01:47:48.720Z,15.90
2017-08-24T01:50:17.508Z,16.00
2017-08-24T01:52:47.251Z,16.10
2017-08-24T01:55:15.272Z,16.00
2017-08-24T01:57:43.307Z,16.10
2017-08-24T02:00:11.656Z,16.10
2017-08-24T02:02:39.724Z,16.20
2017-08-24T02:05:07.715Z,16.20
2017-08-24T02:07:37.679Z,16.20
2017-08-24T02:10:05.722Z,16.20
2017-08-24T02:12:33.735Z,16.20
2017-08-24T02:15:01.788Z,16.30
2017-08-24T02:17:29.807Z,16.30
2017-08-24T02:19:59.781Z,16.20
2017-08-24T02:22:28.770Z,16.10
2017-08-24T02:24:57.495Z,16.10
2017-08-24T02:27:27.463Z,16.00
2017-08-24T02:29:55.506Z,16.00
2017-08-24T02:32:24.516Z,16.00
2017-08-24T02:34:52.535Z,15.90
2017-08-24T02:37:22.516Z,15.90
2017-08-24T02:39:50.539Z,15.80
2017-08-24T02:42:19.559Z,15.80
2017-08-24T02:44:47.604Z,15.70
2017-08-24T02:47:16.755Z,15.70
2017-08-24T02:49:44.781Z,15.70
2017-08-24T02:52:13.811Z,15.70
2017-08-24T02:54:41.830Z,15.70
2017-08-24T02:57:09.847Z,15.70
2017-08-24T02:59:37.879Z,15.70
2017-08-24T03:02:06.888Z,15.80
2017-08-24T03:04:35.883Z,15.80
2017-08-24T03:07:05.323Z,15.80
2017-08-24T03:09:34.111Z,15.90
2017-08-24T03:12:02.899Z,15.90
2017-08-24T03:14:30.938Z,15.80
2017-08-24T03:16:58.959Z,15.90
2017-08-24T03:19:28.923Z,15.80
2017-08-24T03:21:57.923Z,15.80
2017-08-24T03:24:25.935Z,15.80
2017-08-24T03:26:54.867Z,15.80
2017-08-24T03:29:22.895Z,15.80
2017-08-24T03:31:51.836Z,15.80
2017-08-24T03:34:20.811Z,15.80
2017-08-24T03:36:48.842Z,15.80
2017-08-24T03:39:16.862Z,15.80
2017-08-24T03:41:44.891Z,15.80
2017-08-24T03:44:12.919Z,15.70
2017-08-24T03:46:41.887Z,15.70
2017-08-24T03:49:09.918Z,15.60
2017-08-24T03:51:37.951Z,15.60
2017-08-24T03:54:06.923Z,15.60
2017-08-24T03:56:34.951Z,15.50
2017-08-24T03:59:02.975Z,15.50
2017-08-24T04:01:30.990Z,15.50
2017-08-24T04:03:59.002Z,15.50
2017-08-24T04:06:28.027Z,15.50
2017-08-24T04:08:56.043Z,15.50
2017-08-24T04:11:24.082Z,15.50
2017-08-24T04:13:52.118Z,15.40
2017-08-24T04:16:21.103Z,15.40
2017-08-24T04:18:49.115Z,15.40
2017-08-24T04:21:17.154Z,15.30
2017-08-24T04:23:47.046Z,15.30
2017-08-24T04:26:15.063Z,15.30
2017-08-24T04:28:43.850Z,15.30
2017-08-24T04:31:11.870Z,15.20
2017-08-24T04:33:39.894Z,15.20
2017-08-24T04:36:07.934Z,15.20
2017-08-24T04:38:35.962Z,15.20
2017-08-24T04:41:04.974Z,15.20
2017-08-24T04:43:35.014Z,15.20
2017-08-24T04:46:03.038Z,15.20
2017-08-24T04:48:31.966Z,15.20
2017-08-24T04:51:00.002Z,15.20
2017-08-24T04:53:28.025Z,15.20
2017-08-24T04:55:56.050Z,15.30
2017-08-24T04:58:25.082Z,15.30
2017-08-24T05:00:54.870Z,15.50
2017-08-24T05:03:23.866Z,15.50
2017-08-24T05:05:51.905Z,15.70
2017-08-24T05:08:20.933Z,15.80
2017-08-24T05:10:49.917Z,15.80
2017-08-24T05:13:19.973Z,15.90
2017-08-24T05:15:48.017Z,16.10
2017-08-24T05:18:16.041Z,16.20
2017-08-24T05:20:44.093Z,16.30
2017-08-24T05:23:12.115Z,16.40
2017-08-24T05:25:40.134Z,16.50
2017-08-24T05:28:09.093Z,16.60
2017-08-24T05:30:37.113Z,16.80
2017-08-24T05:33:06.142Z,17.00
2017-08-24T05:35:34.194Z,17.20
2017-08-24T05:38:03.217Z,17.40
2017-08-24T05:40:31.373Z,17.50
2017-08-24T05:42:59.390Z,17.50
2017-08-24T05:45:27.425Z,17.60
2017-08-24T05:47:56.409Z,17.60
2017-08-24T05:50:24.437Z,17.60
2017-08-24T05:52:52.465Z,17.80
2017-08-24T05:55:21.504Z,17.90
2017-08-24T05:57:49.545Z,18.10
2017-08-24T06:00:18.340Z,18.50
2017-08-24T06:02:46.373Z,18.50
2017-08-24T06:05:15.373Z,18.70
2017-08-24T06:07:43.549Z,18.90
2017-08-24T06:10:12.528Z,18.90
2017-08-24T06:12:40.581Z,19.00
2017-08-24T06:15:08.629Z,19.00
2017-08-24T06:17:37.560Z,19.10
2017-08-24T06:20:06.573Z,19.10
2017-08-24T06:22:36.477Z,19.20
2017-08-24T06:25:04.493Z,19.10
2017-08-24T06:27:32.544Z,19.10
2017-08-24T06:30:00.577Z,19.00
2017-08-24T06:32:28.677Z,19.10
2017-08-24T06:34:57.104Z,19.10
2017-08-24T06:37:25.122Z,19.20
2017-08-24T06:39:54.941Z,19.30
2017-08-24T06:42:23.048Z,19.20
2017-08-24T06:44:52.069Z,19.30
2017-08-24T06:47:20.101Z,19.20
2017-08-24T06:49:48.124Z,19.30
2017-08-24T06:52:16.144Z,19.50
2017-08-24T06:54:44.232Z,19.70
2017-08-24T06:57:12.258Z,19.80
2017-08-24T06:59:40.264Z,20.00
2017-08-24T07:02:08.313Z,20.30
2017-08-24T07:04:36.392Z,20.50
2017-08-24T07:07:04.421Z,20.60
2017-08-24T07:09:33.404Z,20.60
2017-08-24T07:12:01.528Z,20.60
2017-08-24T07:14:30.473Z,20.80
2017-08-24T07:16:58.500Z,21.10
2017-08-24T07:19:26.541Z,20.80
2017-08-24T07:21:54.673Z,20.90
2017-08-24T07:24:24.684Z,21.10
2017-08-24T07:26:53.032Z,21.20
2017-08-24T07:29:21.152Z,21.50
2017-08-24T07:31:49.177Z,21.50
2017-08-24T07:34:17.192Z,21.70
2017-08-24T07:36:46.168Z,21.90
2017-08-24T07:39:16.184Z,22.10
2017-08-24T07:41:44.326Z,22.50
2017-08-24T07:44:12.340Z,23.00
2017-08-24T07:46:40.356Z,23.50
2017-08-24T07:49:08.416Z,23.70
2017-08-24T07:51:37.456Z,23.50
2017-08-24T07:54:06.456Z,23.70
2017-08-24T07:56:35.470Z,23.90
2017-08-24T07:59:03.494Z,24.60
2017-08-24T08:01:31.512Z,25.10
2017-08-24T08:04:00.304Z,25.40
2017-08-24T08:06:28.328Z,25.40
2017-08-24T08:08:56.349Z,25.70
2017-08-24T08:11:24.404Z,25.40
2017-08-24T08:13:52.426Z,25.10
2017-08-24T08:16:20.440Z,25.00
2017-08-24T08:18:50.451Z,25.10
2017-08-24T08:21:18.464Z,25.20
2017-08-24T08:23:51.616Z,25.50
2017-08-24T08:26:20.533Z,25.50
2017-08-24T08:28:48.560Z,25.20
2017-08-24T08:31:17.408Z,25.30
2017-08-24T08:33:45.428Z,25.50
2017-08-24T08:36:13.448Z,25.80
2017-08-24T08:38:41.492Z,26.00
2017-08-24T08:41:10.288Z,26.00
2017-08-24T08:43:38.315Z,26.00
2017-08-24T08:46:07.328Z,26.00
2017-08-24T08:48:36.243Z,26.40
2017-08-24T08:51:05.196Z,26.60
2017-08-24T08:53:33.207Z,26.40
2017-08-24T08:56:01.227Z,26.30
2017-08-24T08:58:29.241Z,25.90
2017-08-24T09:00:57.287Z,25.90
2017-08-24T09:03:26.259Z,26.00
2017-08-24T09:05:56.271Z,26.40
2017-08-24T09:08:25.211Z,27.10
2017-08-24T09:10:53.248Z,27.50
2017-08-24T09:13:22.968Z,27.10
2017-08-24T09:15:52.975Z,27.10
2017-08-24T09:18:20.995Z,27.20
2017-08-24T09:20:49.007Z,27.50
2017-08-24T09:23:17.056Z,28.00
2017-08-24T09:25:46.059Z,28.00
2017-08-24T09:28:14.076Z,28.00
2017-08-24T09:30:42.099Z,27.70
2017-08-24T09:33:11.092Z,26.80
2017-08-24T09:35:39.111Z,26.20
2017-08-24T09:38:07.147Z,25.90
2017-08-24T09:40:35.168Z,25.80
2017-08-24T09:43:04.203Z,25.50
2017-08-24T09:45:35.847Z,25.30
2017-08-24T09:48:04.767Z,25.50
2017-08-24T09:50:35.531Z,26.70
2017-08-24T09:53:03.807Z,26.70
2017-08-24T09:55:31.775Z,27.10
2017-08-24T09:57:59.815Z,27.00
2017-08-24T10:00:27.835Z,27.20
2017-08-24T10:02:56.747Z,27.70
2017-08-24T10:05:24.784Z,27.80
2017-08-24T10:07:54.731Z,27.50
2017-08-24T10:10:22.751Z,27.80
2017-08-24T10:12:50.771Z,27.90
2017-08-24T10:15:18.786Z,28.20
2017-08-24T10:17:47.583Z,27.40
2017-08-24T10:20:15.611Z,27.40
2017-08-24T10:22:43.639Z,26.60
2017-08-24T10:25:11.662Z,25.70
2017-08-24T10:27:40.375Z,25.10
2017-08-24T10:30:08.398Z,24.50
2017-08-24T10:32:36.435Z,24.10
2017-08-24T10:35:04.479Z,24.10
2017-08-24T10:37:32.507Z,23.90
2017-08-24T10:40:01.495Z,23.70
2017-08-24T10:42:30.199Z,23.60
2017-08-24T10:44:58.216Z,23.60
2017-08-24T10:47:26.236Z,23.60
2017-08-24T10:49:55.251Z,23.70
2017-08-24T10:52:24.035Z,23.70
2017-08-24T10:54:52.838Z,23.80
2017-08-24T10:57:20.890Z,23.80
2017-08-24T10:59:50.915Z,23.90
2017-08-24T11:02:20.798Z,23.90
2017-08-24T11:04:48.830Z,23.80
2017-08-24T11:07:16.851Z,23.80
2017-08-24T11:09:44.878Z,23.90
2017-08-24T11:12:12.906Z,24.00
2017-08-24T11:14:42.690Z,24.00
2017-08-24T11:17:10.771Z,24.00
2017-08-24T11:19:38.798Z,24.20
2017-08-24T11:22:06.827Z,24.50
2017-08-24T11:24:35.798Z,24.90
2017-08-24T11:27:03.810Z,25.20
2017-08-24T11:29:31.834Z,25.50
2017-08-24T11:32:02.800Z,25.60
2017-08-24T11:34:30.834Z,25.90
2017-08-24T11:36:58.870Z,26.20
2017-08-24T11:39:26.922Z,26.10
2017-08-24T11:41:54.947Z,25.90
2017-08-24T11:44:22.978Z,25.80
2017-08-24T11:46:51.017Z,25.90
2017-08-24T11:49:20.852Z,26.40
2017-08-24T11:51:49.790Z,26.40
2017-08-24T11:54:17.830Z,26.20
2017-08-24T11:56:45.845Z,26.20
2017-08-24T11:59:15.851Z,26.40
2017-08-24T12:01:43.886Z,26.40
2017-08-24T12:04:12.914Z,26.80
2017-08-24T12:06:41.889Z,27.20
2017-08-24T12:09:09.922Z,27.50
2017-08-24T12:11:38.834Z,28.20
2017-08-24T12:14:08.053Z,28.90
2017-08-24T12:16:37.062Z,29.50
2017-08-24T12:19:05.086Z,30.00
2017-08-24T12:21:33.102Z,30.50
2017-08-24T12:24:01.150Z,30.40
2017-08-24T12:26:29.166Z,30.90
2017-08-24T12:28:58.933Z,31.10
2017-08-24T12:31:26.987Z,31.10
2017-08-24T12:33:54.994Z,30.60
2017-08-24T12:38:44.994Z,31.50
2017-08-24T12:41:17.134Z,31.50
2017-08-24T12:43:46.554Z,31.80
2017-08-24T12:46:15.434Z,32.20
2017-08-24T12:48:43.630Z,31.20
2017-08-24T12:51:12.710Z,30.10
2017-08-24T12:53:44.365Z,29.50
2017-08-24T12:56:16.586Z,30.00
2017-08-24T12:58:51.893Z,30.90
2017-08-24T13:01:24.426Z,30.70
2017-08-24T13:03:57.069Z,30.00
2017-08-24T13:06:26.022Z,29.00
2017-08-24T13:08:54.037Z,28.20
2017-08-24T13:11:26.043Z,28.10
2017-08-24T13:13:54.073Z,28.50
2017-08-24T13:16:22.858Z,30.30
2017-08-24T13:18:51.813Z,30.20
2017-08-24T13:21:19.830Z,31.10
2017-08-24T13:23:47.859Z,31.70
2017-08-24T13:26:16.834Z,32.20
2017-08-24T13:28:44.865Z,32.10
2017-08-24T13:31:13.893Z,32.50
2017-08-24T13:33:42.618Z,33.30
2017-08-24T13:36:10.646Z,34.70
2017-08-24T13:38:38.669Z,35.20
2017-08-24T13:41:07.610Z,34.90
2017-08-24T13:43:35.629Z,34.80
2017-08-24T13:46:09.890Z,34.30
2017-08-24T13:48:37.913Z,34.50
2017-08-24T13:51:05.937Z,33.70
2017-08-24T13:53:33.965Z,33.20
2017-08-24T13:56:01.981Z,33.00
2017-08-24T13:58:30.961Z,32.90
2017-08-24T14:00:58.997Z,32.20
2017-08-24T14:03:27.025Z,32.30
2017-08-24T14:05:55.053Z,32.80
2017-08-24T14:08:23.081Z,33.00
2017-08-24T14:10:51.115Z,32.80
2017-08-24T14:13:19.141Z,32.50
2017-08-24T14:15:47.177Z,32.70
2017-08-24T14:18:15.957Z,33.40
2017-08-24T14:20:44.933Z,33.40
2017-08-24T14:23:16.681Z,33.00
2017-08-24T14:25:45.684Z,32.90
2017-08-24T14:28:13.705Z,32.70
2017-08-24T14:30:41.732Z,33.10
2017-08-24T14:33:09.754Z,32.80
2017-08-24T14:35:37.780Z,32.50
2017-08-24T14:38:06.590Z,33.40
2017-08-24T14:40:35.376Z,33.50
2017-08-24T14:43:04.162Z,33.20
2017-08-24T14:45:33.969Z,32.20
2017-08-24T14:48:05.069Z,32.20
2017-08-24T14:50:33.096Z,31.50
2017-08-24T14:53:01.125Z,30.90
2017-08-24T14:55:31.028Z,29.90
2017-08-24T14:57:59.052Z,29.50
2017-08-24T15:00:27.100Z,29.30
2017-08-24T15:02:55.112Z,29.40
2017-08-24T15:05:23.148Z,29.80
2017-08-24T15:07:51.192Z,30.00
2017-08-24T15:10:20.113Z,30.50
2017-08-24T15:12:49.889Z,30.60
2017-08-24T15:15:17.916Z,30.60
2017-08-24T15:17:45.928Z,29.90
2017-08-24T15:20:13.953Z,29.70
2017-08-24T15:22:43.932Z,29.70
2017-08-24T15:25:14.952Z,29.60
2017-08-24T15:27:43.960Z,29.70
2017-08-24T15:30:12.744Z,29.40
2017-08-24T15:32:42.744Z,29.40
2017-08-24T15:35:10.780Z,29.40
2017-08-24T15:37:38.796Z,29.40
2017-08-24T15:40:07.779Z,29.00
2017-08-24T15:42:36.767Z,28.70
2017-08-24T15:45:05.756Z,28.90
2017-08-24T15:47:35.808Z,28.90
2017-08-24T15:50:05.208Z,28.80
2017-08-24T15:52:33.248Z,28.80
2017-08-24T15:55:06.760Z,28.90
2017-08-24T15:57:36.451Z,28.20
2017-08-24T16:00:05.466Z,28.20
2017-08-24T16:02:33.471Z,28.10
2017-08-24T16:05:01.488Z,27.80
2017-08-24T16:07:30.484Z,27.70
2017-08-24T16:09:58.507Z,27.80
2017-08-24T16:12:27.547Z,27.80
2017-08-24T16:14:56.544Z,27.70
2017-08-24T16:17:24.567Z,27.50
2017-08-24T16:19:52.592Z,27.20
2017-08-24T16:22:20.595Z,27.00
2017-08-24T16:24:48.636Z,26.80
2017-08-24T16:27:16.660Z,26.70
2017-08-24T16:29:44.679Z,26.70
2017-08-24T16:32:13.483Z,26.60
2017-08-24T16:34:46.328Z,26.50
2017-08-24T16:37:22.887Z,26.40
2017-08-24T16:39:50.895Z,26.30
2017-08-24T16:42:20.575Z,26.10
2017-08-24T16:44:48.655Z,26.00
2017-08-24T16:47:16.683Z,25.90
2017-08-24T16:49:45.706Z,25.70
2017-08-24T16:52:14.511Z,25.40
2017-08-24T16:54:42.540Z,25.30
2017-08-24T16:57:11.327Z,25.10
2017-08-24T16:59:39.371Z,25.10
2017-08-24T17:02:08.315Z,25.00
2017-08-24T17:04:37.219Z,25.00
2017-08-24T17:07:06.183Z,24.90
2017-08-24T17:09:34.199Z,24.80
2017-08-24T17:12:02.228Z,24.70
2017-08-24T17:14:30.254Z,24.60
2017-08-24T17:16:58.267Z,24.50
2017-08-24T17:19:26.283Z,24.40
2017-08-24T17:21:54.307Z,24.30
2017-08-24T17:24:22.327Z,24.20
2017-08-24T17:26:50.351Z,24.10
2017-08-24T17:29:19.343Z,24.00
2017-08-24T17:31:47.355Z,23.90
2017-08-24T17:34:15.383Z,23.80
2017-08-24T17:36:43.959Z,23.70
2017-08-24T17:39:11.979Z,23.70
2017-08-24T17:41:39.995Z,23.60
2017-08-24T17:44:08.027Z,23.50
2017-08-24T17:46:36.036Z,23.40
2017-08-24T17:49:04.055Z,23.30
2017-08-24T17:51:33.759Z,23.20
2017-08-24T17:54:02.551Z,23.20
2017-08-24T17:56:32.311Z,23.10
2017-08-24T17:59:00.339Z,23.10
2017-08-24T18:01:28.363Z,23.00
2017-08-24T18:04:03.979Z,22.90
2017-08-24T18:06:35.052Z,22.80
2017-08-24T18:09:03.078Z,22.70
2017-08-24T18:11:31.135Z,22.70
2017-08-24T18:14:00.091Z,22.60
2017-08-24T18:16:28.118Z,22.60
2017-08-24T18:18:57.046Z,22.50
2017-08-24T18:21:25.084Z,22.40
2017-08-24T18:23:54.006Z,22.40
2017-08-24T18:26:22.039Z,22.30
2017-08-24T18:28:50.422Z,22.20
2017-08-24T18:31:19.446Z,22.10
2017-08-24T18:33:47.475Z,22.10
2017-08-24T18:36:15.495Z,22.00
2017-08-24T18:38:43.511Z,21.90
2017-08-24T18:41:12.459Z,21.80
2017-08-24T18:43:40.491Z,21.70
2017-08-24T18:46:08.533Z,21.70
2017-08-24T18:48:36.574Z,21.60
2017-08-24T18:51:04.595Z,21.60
2017-08-24T18:53:32.907Z,21.50
2017-08-24T18:56:01.915Z,21.40
2017-08-24T18:58:30.694Z,21.20
2017-08-24T19:00:58.715Z,21.20
2017-08-24T19:03:26.762Z,21.10
2017-08-24T19:05:54.782Z,21.00
2017-08-24T19:08:22.810Z,20.90
2017-08-24T19:10:50.847Z,20.70
2017-08-24T19:13:18.866Z,20.60
2017-08-24T19:15:46.887Z,20.40
2017-08-24T19:18:14.914Z,20.20
2017-08-24T19:20:42.938Z,20.10
2017-08-24T19:23:11.949Z,20.00
2017-08-24T19:25:40.866Z,20.00
2017-08-24T19:28:08.878Z,20.00
2017-08-24T19:30:36.914Z,19.90
2017-08-24T19:33:04.946Z,19.90
2017-08-24T19:35:32.966Z,19.90
2017-08-24T19:38:00.991Z,19.80
2017-08-24T19:40:29.026Z,19.70
2017-08-24T19:42:57.038Z,19.60
2017-08-24T19:45:25.050Z,19.40
2017-08-24T19:47:53.078Z,19.20
2017-08-24T19:50:21.090Z,19.00
2017-08-24T19:52:49.122Z,18.90
2017-08-24T19:55:17.150Z,18.90
2017-08-24T19:57:45.935Z,19.00
2017-08-24T20:00:13.960Z,19.00
2017-08-24T20:02:42.350Z,19.00
2017-08-24T20:05:10.331Z,18.90
2017-08-24T20:07:38.375Z,18.80
2017-08-24T20:10:06.437Z,18.60
2017-08-24T20:12:34.454Z,18.60
2017-08-24T20:15:02.481Z,18.50
2017-08-24T20:17:30.513Z,18.40
2017-08-24T20:19:59.313Z,18.30
2017-08-24T20:22:27.350Z,18.30
2017-08-24T20:24:55.378Z,18.10
2017-08-24T20:27:23.401Z,18.10
2017-08-24T20:29:51.433Z,18.00
2017-08-24T20:32:20.453Z,18.00
2017-08-24T20:34:48.477Z,18.00
2017-08-24T20:37:16.505Z,18.00
2017-08-24T20:39:44.541Z,18.00
2017-08-24T20:42:12.586Z,18.00
2017-08-24T20:44:40.593Z,17.90
2017-08-24T20:47:08.641Z,17.90
2017-08-24T20:49:36.661Z,18.00
2017-08-24T20:52:07.373Z,17.80
2017-08-24T20:54:35.417Z,17.80
2017-08-24T20:57:04.433Z,17.60
2017-08-24T20:59:33.421Z,17.50
2017-08-24T21:02:01.473Z,17.50
2017-08-24T21:04:30.481Z,17.40
2017-08-24T21:06:58.513Z,17.30
2017-08-24T21:09:26.541Z,17.30
2017-08-24T21:11:55.529Z,17.20
2017-08-24T21:14:23.549Z,17.10
2017-08-24T21:16:51.580Z,17.00
2017-08-24T21:19:19.605Z,16.90
2017-08-24T21:21:47.637Z,16.80
2017-08-24T21:24:15.696Z,16.80
2017-08-24T21:26:45.497Z,16.90
2017-08-24T21:29:13.525Z,16.80
2017-08-24T21:31:41.581Z,16.80
2017-08-24T21:34:09.613Z,16.90
2017-08-24T21:36:38.421Z,16.80
2017-08-24T21:39:06.470Z,16.80
2017-08-24T21:41:34.501Z,16.80
2017-08-24T21:44:02.535Z,16.70
2017-08-24T21:46:30.565Z,16.70
2017-08-24T21:48:59.549Z,16.70
2017-08-24T21:51:27.573Z,16.70
2017-08-24T21:53:56.655Z,16.70
2017-08-24T21:56:24.692Z,16.70
2017-08-24T21:58:52.725Z,16.70
2017-08-24T22:01:20.773Z,16.70
2017-08-24T22:03:48.801Z,16.70
2017-08-24T22:06:16.844Z,16.80
2017-08-24T22:08:44.981Z,16.70
2017-08-24T22:11:13.021Z,16.70
2017-08-24T22:13:41.037Z,16.60
2017-08-24T22:16:09.309Z,16.60
2017-08-24T22:18:37.332Z,16.60
2017-08-24T22:21:05.372Z,16.70
2017-08-24T22:23:33.421Z,16.70
2017-08-24T22:26:01.448Z,16.80
2017-08-24T22:28:30.237Z,16.70
2017-08-24T22:30:58.268Z,16.80
2017-08-24T22:33:26.288Z,16.80
2017-08-24T22:35:55.253Z,16.90
2017-08-24T22:38:24.193Z,16.90
2017-08-24T22:40:52.228Z,16.90
2017-08-24T22:43:20.252Z,16.90
2017-08-24T22:45:49.308Z,16.90
2017-08-24T22:48:17.350Z,16.70
2017-08-24T22:50:45.372Z,16.60
2017-08-24T22:53:21.008Z,16.40
2017-08-24T22:55:54.660Z,16.40
2017-08-24T22:58:29.457Z,16.40
2017-08-24T23:01:03.237Z,16.40
2017-08-24T23:03:37.657Z,16.30
2017-08-24T23:06:05.692Z,16.30
2017-08-24T23:08:33.736Z,16.30
2017-08-24T23:11:05.344Z,16.40
2017-08-24T23:13:33.384Z,16.40
2017-08-24T23:16:02.384Z,16.40
2017-08-24T23:18:30.420Z,16.30
2017-08-24T23:20:58.456Z,16.20
2017-08-24T23:23:28.376Z,16.20
2017-08-24T23:25:57.944Z,16.10
2017-08-24T23:28:25.967Z,16.10
2017-08-24T23:30:54.000Z,15.90
2017-08-24T23:33:22.048Z,15.90
2017-08-24T23:35:51.027Z,16.00
2017-08-24T23:38:19.056Z,16.00
2017-08-24T23:40:47.104Z,16.00
2017-08-24T23:43:15.892Z,16.00
2017-08-24T23:45:43.935Z,16.00
2017-08-24T23:48:11.969Z,15.90
2017-08-24T23:50:40.020Z,15.90
2017-08-24T23:53:08.055Z,15.80
2017-08-24T23:55:36.099Z,15.70
2017-08-24T23:58:04.127Z,15.70
